createdAt,value
2022-10-29T00:09:47.515Z,56.00
2022-10-29T00:20:02.766Z,57.20
2022-10-29T00:30:13.467Z,56.80
2022-10-29T00:40:22.445Z,58.20
2022-10-29T00:50:31.087Z,60.20
2022-10-29T01:01:00.293Z,61.00
2022-10-29T01:11:24.617Z,62.60
2022-10-29T01:21:47.260Z,63.30
2022-10-29T01:31:58.918Z,64.40
2022-10-29T01:42:14.249Z,64.80
2022-10-29T01:52:24.992Z,64.30
2022-10-29T02:02:55.593Z,58.80
2022-10-29T02:13:05.114Z,57.50
2022-10-29T02:23:12.177Z,56.60
2022-10-29T02:33:22.536Z,56.30
2022-10-29T02:43:29.661Z,55.00
2022-10-29T02:53:41.567Z,55.70
2022-10-29T03:03:54.546Z,55.80
2022-10-29T03:14:03.544Z,55.30
2022-10-29T03:24:21.329Z,55.00
2022-10-29T03:34:46.691Z,55.90
2022-10-29T03:45:21.296Z,56.20
2022-10-29T03:55:35.607Z,56.20
2022-10-29T04:05:48.960Z,56.50
2022-10-29T04:16:03.535Z,57.80
2022-10-29T05:00:48.411Z,56.70
2022-10-29T05:12:09.853Z,56.40
2022-10-29T05:34:21.381Z,55.50
2022-10-29T05:44:37.411Z,54.80
2022-10-29T05:55:11.919Z,55.10
2022-10-29T06:05:33.364Z,54.90
2022-10-29T06:16:03.663Z,55.10
2022-10-29T06:27:05.683Z,54.80
2022-10-29T06:37:39.577Z,54.80
2022-10-29T06:47:59.854Z,54.70
2022-10-29T06:58:16.398Z,54.30
2022-10-29T07:08:31.470Z,54.50
2022-10-29T07:18:52.717Z,54.40
2022-10-29T07:29:20.790Z,54.50
2022-10-29T07:39:34.641Z,54.60
2022-10-29T07:49:48.711Z,54.60
2022-10-29T08:00:09.881Z,54.80
2022-10-29T08:33:21.078Z,54.60
2022-10-29T08:43:52.728Z,54.60
2022-10-29T08:54:34.341Z,54.60
2022-10-29T09:04:48.941Z,54.60
2022-10-29T09:26:34.862Z,54.40
2022-10-29T09:36:53.181Z,54.50
2022-10-29T09:47:16.294Z,54.30
2022-10-29T09:57:29.685Z,54.30
2022-10-29T10:08:07.419Z,54.20
2022-10-29T10:19:13.146Z,54.10
2022-10-29T10:29:35.610Z,53.90
2022-10-29T11:03:01.496Z,53.60
2022-10-29T11:13:35.053Z,53.50
2022-10-29T11:24:04.691Z,53.40
2022-10-29T11:34:28.727Z,53.50
2022-10-29T11:44:46.581Z,53.20
2022-10-29T11:55:25.972Z,53.30
2022-10-29T12:05:49.945Z,53.20
2022-10-29T12:16:17.796Z,53.40
2022-10-29T12:26:53.584Z,53.50
2022-10-29T12:37:30.811Z,53.30
2022-10-29T12:48:16.467Z,53.40
2022-10-29T12:58:58.121Z,53.40
2022-10-29T13:09:23.017Z,53.40
2022-10-29T13:19:55.234Z,53.40
2022-10-29T13:30:34.759Z,53.30
2022-10-29T13:41:20.504Z,53.30
2022-10-29T13:51:37.057Z,53.20
2022-10-29T14:02:20.377Z,53.30
2022-10-29T14:12:58.885Z,53.30
2022-10-29T14:23:35.641Z,53.30
2022-10-29T14:34:07.889Z,53.30
2022-10-29T14:44:39.498Z,53.60
2022-10-29T14:54:52.861Z,53.40
2022-10-29T15:05:07.439Z,53.50
2022-10-29T15:15:32.681Z,53.40
2022-10-29T15:25:54.217Z,53.50
2022-10-29T17:40:48.337Z,54.50
2022-10-29T18:52:33.361Z,55.30
2022-10-29T19:02:51.085Z,53.70
2022-10-29T19:13:14.594Z,53.80
2022-10-29T19:23:26.019Z,53.90
2022-10-29T19:33:56.193Z,54.20
2022-10-29T19:44:23.653Z,54.20
2022-10-29T19:55:09.354Z,54.30
2022-10-29T20:05:31.691Z,55.00
2022-10-29T20:16:08.500Z,54.80
2022-10-29T20:26:57.757Z,55.00
2022-10-29T20:38:11.437Z,56.60
2022-10-29T20:48:37.165Z,56.20
2022-10-29T21:09:39.993Z,57.00
2022-10-29T21:20:00.476Z,56.40
2022-10-29T21:30:16.749Z,55.30
2022-10-29T21:40:53.641Z,54.90
2022-10-29T21:51:10.327Z,55.30
2022-10-29T22:01:47.754Z,54.90
2022-10-29T22:12:04.760Z,55.20
2022-10-29T22:22:20.871Z,54.90
2022-10-29T22:32:40.645Z,54.80
2022-10-29T22:42:56.757Z,55.20
2022-10-29T22:53:13.715Z,55.30
2022-10-29T23:03:27.657Z,55.60
2022-10-29T23:24:18.884Z,55.90
2022-10-29T23:34:33.261Z,56.00
2022-10-29T23:44:48.478Z,56.50
